createdAt,value
2023-01-10T00:01:46.292Z,4.38
2023-01-10T00:04:16.097Z,4.35
2023-01-10T00:06:44.819Z,4.29
2023-01-10T00:09:13.407Z,4.34
2023-01-10T00:11:59.506Z,4.35
2023-01-10T00:14:29.144Z,4.32
2023-01-10T00:16:57.904Z,4.34
2023-01-10T00:19:27.841Z,4.40
2023-01-10T00:21:57.467Z,4.36
2023-01-10T00:24:26.013Z,4.40
2023-01-10T00:26:54.542Z,4.39
2023-01-10T00:29:24.111Z,4.44
2023-01-10T00:31:52.807Z,4.36
2023-01-10T00:34:21.360Z,4.32
2023-01-10T00:36:51.420Z,4.35
2023-01-10T00:39:20.621Z,4.34
2023-01-10T00:42:06.526Z,4.31
2023-01-10T00:44:34.989Z,4.35
2023-01-10T00:47:04.837Z,4.32
2023-01-10T00:49:33.228Z,4.32
2023-01-10T00:52:03.090Z,4.28
2023-01-10T00:54:31.620Z,4.38
2023-01-10T00:57:00.201Z,4.40
2023-01-10T00:59:29.437Z,4.42
2023-01-10T01:01:58.182Z,4.49
2023-01-10T01:04:26.820Z,4.48
2023-01-10T01:06:55.287Z,4.57
2023-01-10T01:09:25.119Z,4.53
2023-01-10T01:11:53.673Z,4.50
2023-01-10T01:14:22.081Z,4.47
2023-01-10T01:16:50.604Z,4.57
2023-01-10T01:19:21.896Z,4.54
2023-01-10T01:21:50.300Z,4.59
2023-01-10T01:24:18.773Z,4.48
2023-01-10T01:26:48.505Z,4.39
2023-01-10T01:29:18.108Z,4.53
2023-01-10T01:31:47.387Z,4.51
2023-01-10T01:34:16.220Z,4.60
2023-01-10T01:36:44.796Z,4.64
2023-01-10T01:39:13.460Z,4.73
2023-01-10T01:42:00.587Z,4.77
2023-01-10T01:44:32.541Z,4.75
2023-01-10T01:47:02.964Z,4.78
2023-01-10T01:49:31.725Z,4.78
2023-01-10T01:52:01.042Z,4.72
2023-01-10T01:54:29.584Z,4.75
2023-01-10T01:56:58.854Z,4.74
2023-01-10T01:59:27.603Z,4.74
2023-01-10T02:01:58.161Z,4.79
2023-01-10T02:04:28.249Z,4.77
2023-01-10T02:06:56.841Z,4.73
2023-01-10T02:09:26.039Z,4.74
2023-01-10T02:11:55.200Z,4.73
2023-01-10T02:14:24.244Z,4.72
2023-01-10T02:16:53.416Z,4.70
2023-01-10T02:19:25.228Z,4.68
2023-01-10T02:22:01.283Z,4.65
2023-01-10T02:24:37.611Z,4.61
2023-01-10T02:27:11.809Z,4.62
2023-01-10T02:29:55.249Z,4.52
2023-01-10T02:32:42.046Z,4.50
2023-01-10T02:35:25.445Z,4.46
2023-01-10T02:37:55.259Z,4.38
2023-01-10T02:40:24.717Z,4.42
2023-01-10T02:42:53.998Z,4.43
2023-01-10T02:45:23.942Z,4.43
2023-01-10T02:47:53.811Z,4.42
2023-01-10T02:50:28.900Z,4.41
2023-01-10T02:52:57.769Z,4.43
2023-01-10T02:55:27.350Z,4.44
2023-01-10T02:57:57.197Z,4.45
2023-01-10T03:00:31.900Z,4.44
2023-01-10T03:03:08.884Z,4.45
2023-01-10T03:05:43.225Z,4.38
2023-01-10T03:08:12.677Z,4.33
2023-01-10T03:10:43.213Z,4.30
2023-01-10T03:13:13.010Z,4.30
2023-01-10T03:15:41.492Z,4.22
2023-01-10T03:18:11.898Z,4.24
2023-01-10T03:20:40.495Z,4.26
2023-01-10T03:23:08.944Z,4.27
2023-01-10T03:25:38.042Z,4.25
2023-01-10T03:28:07.020Z,4.23
2023-01-10T03:30:38.975Z,4.25
2023-01-10T03:33:07.521Z,4.25
2023-01-10T03:35:40.581Z,4.22
2023-01-10T03:40:41.822Z,4.22
2023-01-10T03:43:28.835Z,4.21
2023-01-10T03:45:59.423Z,4.22
2023-01-10T03:48:28.422Z,4.17
2023-01-10T03:50:58.391Z,4.23
2023-01-10T03:53:26.945Z,4.21
2023-01-10T03:55:55.508Z,4.24
2023-01-10T03:58:24.041Z,4.25
2023-01-10T04:00:52.573Z,4.24
2023-01-10T04:03:21.204Z,4.27
2023-01-10T04:05:49.741Z,4.27
2023-01-10T04:08:19.525Z,4.23
2023-01-10T04:10:49.650Z,4.28
2023-01-10T04:13:18.129Z,4.25
2023-01-10T04:15:46.700Z,4.28
2023-01-10T04:18:15.958Z,4.25
2023-01-10T04:20:44.418Z,4.29
2023-01-10T04:23:12.900Z,4.19
2023-01-10T04:25:42.709Z,4.25
2023-01-10T04:28:11.206Z,4.25
2023-01-10T04:30:39.936Z,4.15
2023-01-10T04:33:10.336Z,4.23
2023-01-10T04:35:39.060Z,4.13
2023-01-10T04:38:07.503Z,4.09
2023-01-10T04:40:36.123Z,4.08
2023-01-10T04:43:05.918Z,4.08
2023-01-10T04:45:34.383Z,4.11
2023-01-10T04:48:02.833Z,4.03
2023-01-10T04:50:31.394Z,3.99
2023-01-10T04:52:59.882Z,4.05
2023-01-10T04:55:28.508Z,4.13
2023-01-10T04:57:56.940Z,4.06
2023-01-10T05:00:27.254Z,4.10
2023-01-10T05:02:56.445Z,4.07
2023-01-10T05:05:25.235Z,4.17
2023-01-10T05:07:53.681Z,4.24
2023-01-10T05:10:22.221Z,4.23
2023-01-10T05:12:50.672Z,4.17
2023-01-10T05:15:21.008Z,4.10
2023-01-10T05:17:51.169Z,4.08
2023-01-10T05:20:19.713Z,4.09
2023-01-10T05:22:49.419Z,4.09
2023-01-10T05:25:18.016Z,4.12
2023-01-10T05:27:46.557Z,4.09
2023-01-10T05:30:15.194Z,4.12
2023-01-10T05:32:43.883Z,4.11
2023-01-10T05:35:13.659Z,4.01
2023-01-10T05:37:42.193Z,4.12
2023-01-10T05:40:11.326Z,3.95
2023-01-10T05:42:39.774Z,4.08
2023-01-10T05:45:08.768Z,4.09
2023-01-10T05:47:37.286Z,4.03
2023-01-10T05:50:06.090Z,4.13
2023-01-10T05:52:35.934Z,4.11
2023-01-10T05:55:04.503Z,4.16
2023-01-10T05:57:33.187Z,4.20
2023-01-10T06:00:03.247Z,4.21
2023-01-10T06:02:40.371Z,4.22
2023-01-10T06:05:09.377Z,4.22
2023-01-10T06:07:39.415Z,4.22
2023-01-10T06:10:08.315Z,4.14
2023-01-10T06:12:36.833Z,4.12
2023-01-10T06:15:05.928Z,4.12
2023-01-10T06:17:34.414Z,4.12
2023-01-10T06:20:02.824Z,4.15
2023-01-10T06:22:31.341Z,4.07
2023-01-10T06:25:02.510Z,4.12
2023-01-10T06:27:31.216Z,4.14
2023-01-10T06:30:01.391Z,4.07
2023-01-10T06:32:29.971Z,4.09
2023-01-10T06:34:58.646Z,4.24
2023-01-10T06:37:27.056Z,4.20
2023-01-10T06:39:55.478Z,4.23
2023-01-10T06:42:25.326Z,4.26
2023-01-10T06:44:53.730Z,4.17
2023-01-10T06:47:22.160Z,4.11
2023-01-10T06:49:50.767Z,4.10
2023-01-10T06:52:19.369Z,4.07
2023-01-10T06:54:49.037Z,4.04
2023-01-10T06:57:17.642Z,4.06
2023-01-10T06:59:47.543Z,3.99
2023-01-10T07:02:16.017Z,4.06
2023-01-10T07:04:44.586Z,3.94
2023-01-10T07:07:13.024Z,3.98
2023-01-10T07:09:41.763Z,4.05
2023-01-10T07:12:10.191Z,3.95
2023-01-10T07:14:38.656Z,3.99
2023-01-10T07:17:08.454Z,4.02
2023-01-10T07:19:36.859Z,4.01
2023-01-10T07:22:05.319Z,4.12
2023-01-10T07:24:34.314Z,4.20
2023-01-10T07:27:02.825Z,4.11
2023-01-10T07:29:31.363Z,4.10
2023-01-10T07:32:00.080Z,4.22
2023-01-10T07:34:29.972Z,4.15
2023-01-10T07:36:58.450Z,4.13
2023-01-10T07:39:26.924Z,4.10
2023-01-10T07:41:55.391Z,4.11
2023-01-10T07:44:24.087Z,4.06
2023-01-10T07:46:52.665Z,4.07
2023-01-10T07:49:21.127Z,4.12
2023-01-10T07:51:51.195Z,4.11
2023-01-10T07:54:19.786Z,4.14
2023-01-10T07:56:48.941Z,4.13
2023-01-10T07:59:17.471Z,4.12
2023-01-10T08:01:46.139Z,4.05
2023-01-10T08:04:14.712Z,4.02
2023-01-10T08:06:43.113Z,4.02
2023-01-10T08:09:13.119Z,4.05
2023-01-10T08:11:42.564Z,4.11
2023-01-10T08:14:11.333Z,4.04
2023-01-10T08:16:40.081Z,4.02
2023-01-10T08:19:08.968Z,4.08
2023-01-10T08:21:37.593Z,4.10
2023-01-10T08:24:06.605Z,4.14
2023-01-10T08:26:36.774Z,4.17
2023-01-10T08:29:05.224Z,4.16
2023-01-10T08:31:33.749Z,4.15
2023-01-10T08:34:02.194Z,4.13
2023-01-10T08:36:30.765Z,4.15
2023-01-10T08:38:59.379Z,4.17
2023-01-10T08:41:27.924Z,4.22
2023-01-10T08:43:57.767Z,4.27
2023-01-10T08:46:26.297Z,4.23
2023-01-10T08:48:54.912Z,4.23
2023-01-10T08:51:23.433Z,4.23
2023-01-10T08:53:51.933Z,4.19
2023-01-10T08:56:20.372Z,4.28
2023-01-10T08:58:48.940Z,4.31
2023-01-10T09:01:18.993Z,4.24
2023-01-10T09:03:47.625Z,4.34
2023-01-10T09:06:16.156Z,4.30
2023-01-10T09:08:44.840Z,4.31
2023-01-10T09:11:13.276Z,4.32
2023-01-10T09:13:42.291Z,4.57
2023-01-10T09:16:11.147Z,4.45
2023-01-10T09:18:41.064Z,4.40
2023-01-10T09:21:09.719Z,4.39
2023-01-10T09:23:39.864Z,4.34
2023-01-10T09:26:08.666Z,4.39
2023-01-10T09:28:37.068Z,4.41
2023-01-10T09:31:07.126Z,4.40
2023-01-10T09:33:46.397Z,4.46
2023-01-10T09:36:17.198Z,4.47
2023-01-10T09:38:45.894Z,4.45
2023-01-10T09:41:20.295Z,4.47
2023-01-10T09:43:52.870Z,4.54
2023-01-10T09:46:22.750Z,4.55
2023-01-10T09:48:53.672Z,4.59
2023-01-10T09:51:27.479Z,4.61
2023-01-10T09:54:10.029Z,4.59
2023-01-10T09:56:40.408Z,4.60
2023-01-10T09:59:10.840Z,4.60
2023-01-10T10:01:39.347Z,4.63
2023-01-10T10:04:11.614Z,4.63
2023-01-10T10:06:42.922Z,4.63
2023-01-10T10:09:18.669Z,4.62
2023-01-10T10:11:51.992Z,4.66
2023-01-10T10:14:27.169Z,4.62
2023-01-10T10:17:00.123Z,4.63
2023-01-10T10:19:30.247Z,4.60
2023-01-10T10:22:01.575Z,4.65
2023-01-10T10:24:32.814Z,4.68
2023-01-10T10:27:08.465Z,4.70
2023-01-10T10:29:49.773Z,4.69
2023-01-10T10:32:22.687Z,4.64
2023-01-10T10:34:52.204Z,4.72
2023-01-10T10:37:22.983Z,4.65
2023-01-10T10:39:52.800Z,4.71
2023-01-10T10:42:21.288Z,4.75
2023-01-10T10:44:51.692Z,4.83
2023-01-10T10:47:20.973Z,4.90
2023-01-10T10:49:51.194Z,4.93
2023-01-10T10:52:22.848Z,4.96
2023-01-10T10:54:51.344Z,5.01
2023-01-10T10:57:20.499Z,5.07
2023-01-10T10:59:49.256Z,5.05
2023-01-10T11:02:21.179Z,4.96
2023-01-10T11:04:49.887Z,4.96
2023-01-10T11:07:18.934Z,5.00
2023-01-10T11:09:51.230Z,4.99
2023-01-10T11:12:20.073Z,4.97
2023-01-10T11:14:49.270Z,5.01
2023-01-10T11:17:22.249Z,4.99
2023-01-10T11:19:57.210Z,5.00
2023-01-10T11:22:26.051Z,5.02
2023-01-10T11:24:56.552Z,4.91
2023-01-10T11:27:25.694Z,4.91
2023-01-10T11:29:56.300Z,4.97
2023-01-10T11:32:31.712Z,5.10
2023-01-10T11:35:00.982Z,5.06
2023-01-10T11:37:32.305Z,5.13
2023-01-10T11:40:20.660Z,5.19
2023-01-10T11:42:49.132Z,5.28
2023-01-10T11:45:31.915Z,5.38
2023-01-10T11:48:07.052Z,5.36
2023-01-10T11:50:36.494Z,5.33
2023-01-10T11:53:05.487Z,5.39
2023-01-10T11:55:36.189Z,5.42
2023-01-10T11:58:05.271Z,5.44
2023-01-10T12:00:35.390Z,5.41
2023-01-10T12:03:04.040Z,5.35
2023-01-10T12:05:32.733Z,5.38
2023-01-10T12:08:06.082Z,5.56
2023-01-10T12:10:36.002Z,5.61
2023-01-10T12:13:09.134Z,5.57
2023-01-10T12:15:37.806Z,5.53
2023-01-10T12:18:06.444Z,5.49
2023-01-10T12:20:36.153Z,5.51
2023-01-10T12:23:05.128Z,5.52
2023-01-10T12:25:34.438Z,5.58
2023-01-10T12:28:04.514Z,5.70
2023-01-10T12:30:34.042Z,5.77
2023-01-10T12:33:03.909Z,5.92
2023-01-10T12:35:37.897Z,6.18
2023-01-10T12:38:07.438Z,6.52
2023-01-10T12:40:37.354Z,6.84
2023-01-10T12:43:26.180Z,6.80
2023-01-10T12:45:55.298Z,6.73
2023-01-10T12:48:25.536Z,6.65
2023-01-10T12:50:55.359Z,6.78
2023-01-10T12:53:26.175Z,6.74
2023-01-10T12:55:56.794Z,6.64
2023-01-10T12:58:28.065Z,6.44
2023-01-10T13:00:58.034Z,6.40
2023-01-10T13:03:27.414Z,6.34
2023-01-10T13:05:56.009Z,6.29
2023-01-10T13:08:25.284Z,6.31
2023-01-10T13:10:54.143Z,6.29
2023-01-10T13:13:23.575Z,6.21
2023-01-10T13:15:54.131Z,6.18
2023-01-10T13:18:25.898Z,6.21
2023-01-10T13:21:03.984Z,6.20
2023-01-10T13:23:33.501Z,6.18
2023-01-10T13:26:04.606Z,6.21
2023-01-10T13:28:33.962Z,6.16
2023-01-10T13:31:05.088Z,6.11
2023-01-10T13:33:36.055Z,6.11
2023-01-10T13:36:12.230Z,6.11
2023-01-10T13:38:46.588Z,6.16
2023-01-10T13:41:29.040Z,6.25
2023-01-10T13:44:01.570Z,6.25
2023-01-10T13:46:36.010Z,6.26
2023-01-10T13:49:23.513Z,6.25
2023-01-10T13:52:10.670Z,6.33
2023-01-10T13:54:39.217Z,6.45
2023-01-10T13:57:22.599Z,6.69
2023-01-10T14:00:18.993Z,6.76
2023-01-10T14:02:49.014Z,6.88
2023-01-10T14:05:18.277Z,7.03
2023-01-10T14:07:47.417Z,7.19
2023-01-10T14:10:20.215Z,7.20
2023-01-10T14:12:49.797Z,7.09
2023-01-10T14:15:25.854Z,7.08
2023-01-10T14:17:57.893Z,7.27
2023-01-10T14:20:26.560Z,7.14
2023-01-10T14:22:58.692Z,7.03
2023-01-10T14:25:27.768Z,7.00
2023-01-10T14:27:56.538Z,7.10
2023-01-10T14:33:08.531Z,7.42
2023-01-10T14:35:40.119Z,7.39
2023-01-10T14:38:09.874Z,7.27
2023-01-10T14:40:41.839Z,7.15
2023-01-10T14:43:14.637Z,6.92
2023-01-10T14:45:49.504Z,6.88
2023-01-10T14:48:31.154Z,6.85
2023-01-10T14:51:24.169Z,6.76
2023-01-10T14:54:01.307Z,6.77
2023-01-10T14:56:31.980Z,6.68
2023-01-10T14:59:00.737Z,6.66
2023-01-10T15:01:31.017Z,6.56
2023-01-10T15:04:02.950Z,6.51
2023-01-10T15:06:32.403Z,6.44
2023-01-10T15:09:03.561Z,6.38
2023-01-10T15:11:32.516Z,6.36
2023-01-10T15:14:05.207Z,6.39
2023-01-10T15:16:34.249Z,6.32
2023-01-10T15:19:04.722Z,6.34
2023-01-10T15:21:33.446Z,6.30
2023-01-10T15:24:02.358Z,6.23
2023-01-10T15:26:33.555Z,6.22
2023-01-10T15:29:08.148Z,6.12
2023-01-10T15:31:38.390Z,6.12
2023-01-10T15:34:11.614Z,6.08
2023-01-10T15:36:44.497Z,6.09
2023-01-10T15:39:22.973Z,5.98
2023-01-10T15:41:55.790Z,6.00
2023-01-10T15:44:46.008Z,5.95
2023-01-10T15:47:36.526Z,5.91
2023-01-10T15:50:19.654Z,5.92
2023-01-10T15:52:52.174Z,5.89
2023-01-10T15:55:39.881Z,5.93
2023-01-10T15:58:20.164Z,5.90
2023-01-10T16:00:50.492Z,5.88
2023-01-10T16:03:26.235Z,5.84
2023-01-10T16:05:59.158Z,5.84
2023-01-10T16:08:34.869Z,5.77
2023-01-10T16:11:37.994Z,5.74
2023-01-10T16:14:05.773Z,5.75
2023-01-10T16:16:36.545Z,5.71
2023-01-10T16:19:05.293Z,5.72
2023-01-10T16:21:39.096Z,5.69
2023-01-10T16:24:10.854Z,5.64
2023-01-10T16:26:39.765Z,5.62
2023-01-10T16:29:08.497Z,5.61
2023-01-10T16:31:37.241Z,5.61
2023-01-10T16:34:06.121Z,5.59
2023-01-10T16:36:36.448Z,5.61
2023-01-10T16:39:08.547Z,5.60
2023-01-10T16:41:54.923Z,5.57
2023-01-10T16:44:23.531Z,5.47
2023-01-10T16:46:52.974Z,5.46
2023-01-10T16:49:21.694Z,5.46
2023-01-10T16:51:52.166Z,5.48
2023-01-10T16:54:22.312Z,5.46
2023-01-10T16:56:51.566Z,5.43
2023-01-10T16:59:20.568Z,5.40
2023-01-10T17:01:52.378Z,5.40
2023-01-10T17:04:24.384Z,5.35
2023-01-10T17:06:54.609Z,5.28
2023-01-10T17:09:25.390Z,5.28
2023-01-10T17:12:01.848Z,5.26
2023-01-10T17:14:30.912Z,5.26
2023-01-10T17:16:59.758Z,5.21
2023-01-10T17:19:28.664Z,5.22
2023-01-10T17:21:58.735Z,5.24
2023-01-10T17:24:29.722Z,5.19
2023-01-10T17:26:58.415Z,5.20
2023-01-10T17:29:27.091Z,5.21
2023-01-10T17:31:55.809Z,5.20
2023-01-10T17:34:24.707Z,5.19
2023-01-10T17:36:53.411Z,5.18
2023-01-10T17:39:23.979Z,5.14
2023-01-10T17:41:52.774Z,5.13
2023-01-10T17:44:21.613Z,5.12
2023-01-10T17:46:50.322Z,5.04
2023-01-10T17:49:19.157Z,5.09
2023-01-10T17:51:47.843Z,5.08
2023-01-10T17:54:16.513Z,5.04
2023-01-10T17:56:46.595Z,5.06
2023-01-10T17:59:15.336Z,5.08
2023-01-10T18:01:44.146Z,5.05
2023-01-10T18:04:12.832Z,5.00
2023-01-10T18:06:41.542Z,5.03
2023-01-10T18:09:10.839Z,4.99
2023-01-10T18:11:39.456Z,4.97
2023-01-10T18:14:23.593Z,4.98
2023-01-10T18:16:52.270Z,4.90
2023-01-10T18:19:21.121Z,4.88
2023-01-10T18:21:52.052Z,4.87
2023-01-10T18:24:20.685Z,4.89
2023-01-10T18:26:49.641Z,4.88
2023-01-10T18:29:19.801Z,4.89
2023-01-10T18:31:48.529Z,4.89
2023-01-10T18:34:17.459Z,4.93
2023-01-10T18:36:46.147Z,4.90
2023-01-10T18:39:14.919Z,4.93
2023-01-10T18:41:43.796Z,4.88
2023-01-10T18:44:12.429Z,4.87
2023-01-10T18:46:42.510Z,4.81
2023-01-10T18:49:12.054Z,4.82
2023-01-10T18:51:40.812Z,4.80
2023-01-10T18:54:09.539Z,4.84
2023-01-10T18:56:38.219Z,4.83
2023-01-10T18:59:06.982Z,4.82
2023-01-10T19:01:35.717Z,4.87
2023-01-10T19:04:06.436Z,4.85
2023-01-10T19:06:35.318Z,4.84
2023-01-10T19:09:04.038Z,4.78
2023-01-10T19:11:32.973Z,4.83
2023-01-10T19:14:33.884Z,4.86
2023-01-10T19:17:06.052Z,4.87
2023-01-10T19:19:40.913Z,4.90
2023-01-10T19:22:10.213Z,4.89
2023-01-10T19:24:39.176Z,4.91
2023-01-10T19:27:07.882Z,4.85
2023-01-10T19:29:37.357Z,4.82
2023-01-10T19:32:06.358Z,4.83
2023-01-10T19:34:37.322Z,4.82
2023-01-10T19:37:06.488Z,4.80
2023-01-10T19:39:36.189Z,4.80
2023-01-10T19:42:05.182Z,4.81
2023-01-10T19:44:33.944Z,4.88
2023-01-10T19:47:02.856Z,4.88
2023-01-10T19:49:35.873Z,4.83
2023-01-10T19:52:06.479Z,4.83
2023-01-10T19:54:36.556Z,4.86
2023-01-10T19:57:05.401Z,4.85
2023-01-10T19:59:34.041Z,4.83
2023-01-10T20:02:02.657Z,4.88
2023-01-10T20:04:31.314Z,4.85
2023-01-10T20:06:59.987Z,4.84
2023-01-10T20:09:29.936Z,4.82
2023-01-10T20:11:58.751Z,4.84
2023-01-10T20:14:27.696Z,4.83
2023-01-10T20:16:56.413Z,4.83
2023-01-10T20:19:25.255Z,4.84
2023-01-10T20:21:54.696Z,4.86
2023-01-10T20:24:23.396Z,4.87
2023-01-10T20:27:00.672Z,4.85
2023-01-10T20:29:29.307Z,4.84
2023-01-10T20:32:01.040Z,4.84
2023-01-10T20:34:30.464Z,4.88
2023-01-10T20:36:59.128Z,4.87
2023-01-10T20:39:27.884Z,4.85
2023-01-10T20:41:59.070Z,4.85
2023-01-10T20:44:28.179Z,4.83
2023-01-10T20:46:57.035Z,4.87
2023-01-10T20:49:25.845Z,4.91
2023-01-10T20:51:54.573Z,4.88
2023-01-10T20:54:23.396Z,4.83
2023-01-10T20:56:52.081Z,4.90
2023-01-10T20:59:23.166Z,4.83
2023-01-10T21:01:53.212Z,4.88
2023-01-10T21:04:21.834Z,4.95
2023-01-10T21:06:50.588Z,4.89
2023-01-10T21:09:19.484Z,4.89
2023-01-10T21:12:02.086Z,4.84
2023-01-10T21:14:38.201Z,4.88
2023-01-10T21:17:06.933Z,4.88
2023-01-10T21:19:35.731Z,4.87
2023-01-10T21:22:04.498Z,4.88
2023-01-10T21:24:33.320Z,4.89
2023-01-10T21:27:01.961Z,4.85
2023-01-10T21:29:30.922Z,4.93
2023-01-10T21:32:00.918Z,4.92
2023-01-10T21:34:29.725Z,4.93
2023-01-10T21:36:58.487Z,4.98
2023-01-10T21:39:27.207Z,4.89
2023-01-10T21:42:13.273Z,4.82
2023-01-10T21:44:41.899Z,4.73
2023-01-10T21:47:11.895Z,4.71
2023-01-10T21:49:40.530Z,4.71
2023-01-10T21:52:09.193Z,4.71
2023-01-10T21:54:37.927Z,4.71
2023-01-10T21:57:06.640Z,4.74
2023-01-10T21:59:37.754Z,4.73
2023-01-10T22:02:06.503Z,4.75
2023-01-10T22:04:36.475Z,4.75
2023-01-10T22:07:05.225Z,4.77
2023-01-10T22:09:34.113Z,4.75
2023-01-10T22:12:02.771Z,4.77
2023-01-10T22:14:31.432Z,4.80
2023-01-10T22:17:00.099Z,4.76
2023-01-10T22:19:28.784Z,4.80
2023-01-10T22:21:58.854Z,4.91
2023-01-10T22:24:27.533Z,4.80
2023-01-10T22:26:56.336Z,4.84
2023-01-10T22:29:26.249Z,4.87
2023-01-10T22:31:55.029Z,4.83
2023-01-10T22:34:23.889Z,4.87
2023-01-10T22:36:52.622Z,4.87
2023-01-10T22:39:22.714Z,4.87
2023-01-10T22:41:53.491Z,4.84
2023-01-10T22:44:24.379Z,4.85
2023-01-10T22:46:53.842Z,4.89
2023-01-10T22:49:22.657Z,4.95
2023-01-10T22:51:51.491Z,4.94
2023-01-10T22:54:21.485Z,5.00
2023-01-10T22:56:50.133Z,4.99
2023-01-10T22:59:18.927Z,4.97
2023-01-10T23:01:47.761Z,5.03
2023-01-10T23:04:18.010Z,5.06
2023-01-10T23:06:46.820Z,4.98
2023-01-10T23:09:15.598Z,4.95
2023-01-10T23:11:45.724Z,4.99
2023-01-10T23:14:14.610Z,5.02
2023-01-10T23:16:43.346Z,4.98
2023-01-10T23:19:12.558Z,5.02
2023-01-10T23:21:41.287Z,5.09
2023-01-10T23:24:10.125Z,5.10
2023-01-10T23:26:38.906Z,5.06
2023-01-10T23:29:09.044Z,5.07
2023-01-10T23:31:37.909Z,5.07
2023-01-10T23:34:06.581Z,5.05
2023-01-10T23:36:35.378Z,5.08
2023-01-10T23:39:03.952Z,5.09
2023-01-10T23:41:32.684Z,5.10
2023-01-10T23:44:01.381Z,5.11
2023-01-10T23:46:31.531Z,5.25
2023-01-10T23:49:00.187Z,5.30
2023-01-10T23:51:28.852Z,5.29
2023-01-10T23:53:57.505Z,5.32
2023-01-10T23:56:26.253Z,5.34
2023-01-10T23:58:54.990Z,5.35
